createdAt,value
2019-04-25T00:01:57.887Z,76
2019-04-25T00:12:02.455Z,76.6
2019-04-25T00:22:05.905Z,77.4
2019-04-25T00:32:09.377Z,78.6
2019-04-25T00:42:12.856Z,79.4
2019-04-25T00:52:16.291Z,79.1
2019-04-25T01:02:21.572Z,79.2
2019-04-25T01:12:25.036Z,79.5
2019-04-25T01:22:28.476Z,79.7
2019-04-25T01:32:33.608Z,80.5
2019-04-25T01:42:37.078Z,81.1
2019-04-25T01:52:40.495Z,81.3
2019-04-25T02:02:43.920Z,82.1
2019-04-25T02:12:47.365Z,81.4
2019-04-25T02:22:52.667Z,81.6
2019-04-25T02:33:08.499Z,81.8
2019-04-25T02:43:14.506Z,84
2019-04-25T02:53:17.988Z,83.6
2019-04-25T03:03:21.472Z,82.6
2019-04-25T03:13:25.035Z,82.8
2019-04-25T03:23:28.500Z,83.6
2019-04-25T03:33:31.975Z,83.1
2019-04-25T03:43:41.258Z,83.6
2019-04-25T03:53:44.680Z,84.5
2019-04-25T04:03:48.150Z,84
2019-04-25T04:13:51.577Z,83.8
2019-04-25T04:23:57.330Z,84.9
2019-04-25T04:34:00.766Z,85.5
2019-04-25T04:44:04.337Z,85.2
2019-04-25T04:54:07.764Z,86.6
2019-04-25T05:04:15.957Z,85.6
2019-04-25T05:14:20.503Z,87.1
2019-04-25T05:24:26.538Z,85.7
2019-04-25T05:34:29.998Z,84.6
2019-04-25T05:44:34.488Z,84.7
2019-04-25T05:54:37.966Z,84.4
2019-04-25T06:04:41.400Z,86.2
2019-04-25T06:14:44.847Z,84
2019-04-25T06:24:48.259Z,82.1
2019-04-25T06:34:51.742Z,81.2
2019-04-25T06:44:55.200Z,83.3
2019-04-25T06:54:58.659Z,85.6
2019-04-25T07:05:04.078Z,85
2019-04-25T07:15:07.540Z,85.2
2019-04-25T07:25:10.957Z,86.2
2019-04-25T07:35:14.440Z,80.4
2019-04-25T07:45:18.053Z,76.2
2019-04-25T07:55:21.489Z,76
2019-04-25T08:05:27.938Z,72.5
2019-04-25T08:15:33.511Z,74.8
2019-04-25T08:25:40.729Z,72.2
2019-04-25T08:36:08.736Z,71.6
2019-04-25T08:46:14.205Z,70.4
2019-04-25T08:56:17.655Z,74.7
2019-04-25T09:06:21.116Z,66.4
2019-04-25T09:16:24.543Z,68.8
2019-04-25T09:26:28.007Z,60.5
2019-04-25T09:36:31.451Z,61.9
2019-04-25T09:46:37.210Z,60.2
2019-04-25T09:56:40.777Z,58.4
2019-04-25T10:06:46.019Z,57.7
2019-04-25T10:16:49.498Z,52.1
2019-04-25T10:26:54.877Z,52.6
2019-04-25T10:36:58.331Z,52.7
2019-04-25T10:47:01.764Z,48.2
2019-04-25T10:57:06.732Z,49.6
2019-04-25T11:07:10.206Z,46.2
2019-04-25T11:17:15.712Z,45.7
2019-04-25T11:27:19.169Z,46.3
2019-04-25T11:37:24.057Z,45.1
2019-04-25T11:47:27.503Z,44.4
2019-04-25T11:57:30.914Z,49.9
2019-04-25T12:07:34.487Z,44.3
2019-04-25T12:17:37.899Z,40.3
2019-04-25T12:27:41.374Z,31.4
2019-04-25T12:37:44.805Z,33.9
2019-04-25T12:47:48.216Z,30.3
2019-04-25T12:57:56.424Z,31.5
2019-04-25T13:08:01.234Z,31
2019-04-25T13:18:04.695Z,28.9
2019-04-25T13:28:08.587Z,32
2019-04-25T13:38:12.015Z,29.5
2019-04-25T13:48:15.467Z,28.1
2019-04-25T13:58:18.937Z,30.6
2019-04-25T14:08:25.733Z,28.9
2019-04-25T14:18:30.235Z,30.9
2019-04-25T14:28:35.581Z,29.8
2019-04-25T14:38:38.973Z,30.7
2019-04-25T14:48:42.390Z,31.2
2019-04-25T14:58:45.827Z,30.4
2019-04-25T15:08:49.269Z,31.7
2019-04-25T15:18:52.743Z,32.9
2019-04-25T15:28:56.162Z,30.9
2019-04-25T15:38:59.578Z,31
2019-04-25T15:49:03.010Z,34.4
2019-04-25T15:59:06.451Z,31.9
2019-04-25T16:09:10.682Z,30.3
2019-04-25T16:19:14.128Z,32.7
2019-04-25T16:29:17.525Z,32.7
2019-04-25T16:39:20.958Z,33.3
2019-04-25T16:49:24.397Z,34.9
2019-04-25T16:59:29.707Z,32.1
2019-04-25T17:09:34.006Z,30.1
2019-04-25T17:19:37.466Z,31.5
2019-04-25T17:29:40.881Z,32.7
2019-04-25T17:39:44.335Z,31
2019-04-25T17:49:47.768Z,33
2019-04-25T17:59:51.215Z,33.4
2019-04-25T18:09:54.665Z,31.4
2019-04-25T18:19:58.109Z,31.1
2019-04-25T18:30:01.574Z,44.6
2019-04-25T18:40:05.075Z,51.1
2019-04-25T18:50:08.507Z,54.6
2019-04-25T19:00:11.963Z,57.4
2019-04-25T19:10:15.420Z,59.3
2019-04-25T19:20:18.857Z,63
2019-04-25T19:30:22.291Z,65.8
2019-04-25T19:40:25.721Z,68.6
2019-04-25T19:50:29.162Z,69.7
2019-04-25T20:00:32.573Z,70
2019-04-25T20:10:36.012Z,71.6
2019-04-25T20:20:39.465Z,73.3
2019-04-25T20:30:42.928Z,73.6
2019-04-25T20:40:47.739Z,73.7
2019-04-25T20:50:51.219Z,73.7
2019-04-25T21:00:56.071Z,73.3
2019-04-25T21:10:59.563Z,72.4
2019-04-25T21:21:03.139Z,72.1
2019-04-25T21:31:06.645Z,72.2
2019-04-25T21:41:10.443Z,71.2
2019-04-25T21:51:14.669Z,70.2
2019-04-25T22:01:18.140Z,70.7
2019-04-25T22:11:21.827Z,72.2
2019-04-25T22:21:39.021Z,73.6
2019-04-25T22:31:42.658Z,73.3
2019-04-25T22:41:50.173Z,72.3
2019-04-25T22:51:55.423Z,73
2019-04-25T23:01:59.152Z,73.8
2019-04-25T23:12:07.059Z,74.3
2019-04-25T23:22:12.396Z,75.5
2019-04-25T23:32:16.977Z,76.9
2019-04-25T23:42:20.645Z,77.1
2019-04-25T23:52:24.681Z,78.2
